createdAt,value
2018-12-23T00:00:43.930Z,82.48
2018-12-23T00:03:14.031Z,82.12
2018-12-23T00:05:43.325Z,82.21
2018-12-23T00:08:11.816Z,82.20
2018-12-23T00:10:40.745Z,82.47
2018-12-23T00:13:09.248Z,82.49
2018-12-23T00:15:38.105Z,82.24
2018-12-23T00:18:08.598Z,82.07
2018-12-23T00:20:37.005Z,82.41
2018-12-23T00:23:05.523Z,81.70
2018-12-23T00:25:34.962Z,82.17
2018-12-23T00:28:04.376Z,82.60
2018-12-23T00:30:33.089Z,82.16
2018-12-23T00:33:02.890Z,82.63
2018-12-23T00:35:31.765Z,81.81
2018-12-23T00:38:00.365Z,81.80
2018-12-23T00:40:28.933Z,81.91
2018-12-23T00:42:57.405Z,82.02
2018-12-23T00:45:25.827Z,81.83
2018-12-23T00:47:55.347Z,82.08
2018-12-23T00:50:23.750Z,82.81
2018-12-23T00:52:52.181Z,82.48
2018-12-23T00:55:21.032Z,82.59
2018-12-23T00:57:49.424Z,82.75
2018-12-23T01:00:17.921Z,82.58
2018-12-23T01:02:46.778Z,82.28
2018-12-23T01:05:15.297Z,82.32
2018-12-23T01:07:43.699Z,82.43
2018-12-23T01:10:12.599Z,82.70
2018-12-23T01:12:41.007Z,82.69
2018-12-23T01:15:09.569Z,82.24
2018-12-23T01:17:38.305Z,82.68
2018-12-23T01:20:08.008Z,82.51
2018-12-23T01:22:36.416Z,82.64
2018-12-23T01:25:05.577Z,81.95
2018-12-23T01:27:34.061Z,82.32
2018-12-23T01:30:02.542Z,82.67
2018-12-23T01:32:31.149Z,82.62
2018-12-23T01:34:59.523Z,82.68
2018-12-23T01:37:27.893Z,82.00
2018-12-23T01:39:56.740Z,82.29
2018-12-23T01:42:25.130Z,82.60
2018-12-23T01:44:53.640Z,81.95
2018-12-23T01:47:22.853Z,81.89
2018-12-23T01:49:51.629Z,82.15
2018-12-23T01:52:20.155Z,81.94
2018-12-23T01:54:48.676Z,82.15
2018-12-23T01:57:17.089Z,82.70
2018-12-23T01:59:45.777Z,82.69
2018-12-23T02:02:14.627Z,81.68
2018-12-23T02:04:43.084Z,81.71
2018-12-23T02:07:11.694Z,82.42
2018-12-23T02:09:40.365Z,82.36
2018-12-23T02:12:08.766Z,81.70
2018-12-23T02:14:37.195Z,82.07
2018-12-23T02:17:05.808Z,82.42
2018-12-23T02:19:34.192Z,81.87
2018-12-23T02:22:02.573Z,82.19
2018-12-23T02:24:31.313Z,82.16
2018-12-23T02:26:59.729Z,82.15
2018-12-23T02:29:28.108Z,81.70
2018-12-23T02:31:57.013Z,82.25
2018-12-23T02:34:25.417Z,82.00
2018-12-23T02:36:53.840Z,81.95
2018-12-23T02:39:22.491Z,81.77
2018-12-23T02:41:50.879Z,82.25
2018-12-23T02:44:19.278Z,81.83
2018-12-23T02:46:48.181Z,82.13
2018-12-23T02:49:16.598Z,81.73
2018-12-23T02:51:45.155Z,81.96
2018-12-23T02:54:14.249Z,81.82
2018-12-23T02:56:42.762Z,81.96
2018-12-23T02:59:11.150Z,82.51
2018-12-23T03:01:39.999Z,82.51
2018-12-23T03:04:08.390Z,81.88
2018-12-23T03:06:36.791Z,82.70
2018-12-23T03:09:07.650Z,82.02
2018-12-23T03:11:36.164Z,82.57
2018-12-23T03:14:04.583Z,82.71
2018-12-23T03:16:33.338Z,81.88
2018-12-23T03:19:01.693Z,82.12
2018-12-23T03:21:30.272Z,81.96
2018-12-23T03:23:58.944Z,82.32
2018-12-23T03:26:27.330Z,81.85
2018-12-23T03:28:55.712Z,82.27
2018-12-23T03:31:24.522Z,81.83
2018-12-23T03:33:52.888Z,81.54
2018-12-23T03:36:21.279Z,82.20
2018-12-23T03:38:49.828Z,81.76
2018-12-23T03:41:18.338Z,81.58
2018-12-23T03:43:46.738Z,81.68
2018-12-23T03:46:15.725Z,81.98
2018-12-23T03:48:44.086Z,82.39
2018-12-23T03:51:12.476Z,81.82
2018-12-23T03:53:41.226Z,81.83
2018-12-23T03:56:09.607Z,82.22
2018-12-23T03:58:37.986Z,82.37
2018-12-23T04:01:06.668Z,82.53
2018-12-23T04:03:35.259Z,81.88
2018-12-23T04:06:03.623Z,82.23
2018-12-23T04:08:32.692Z,82.18
2018-12-23T04:11:01.055Z,82.38
2018-12-23T04:13:29.511Z,82.54
2018-12-23T04:15:58.718Z,82.23
2018-12-23T04:18:27.081Z,82.37
2018-12-23T04:20:55.464Z,82.42
2018-12-23T04:23:24.144Z,82.13
2018-12-23T04:25:52.604Z,81.95
2018-12-23T04:28:21.061Z,81.85
2018-12-23T04:30:49.772Z,82.45
2018-12-23T04:33:18.158Z,82.30
2018-12-23T04:35:46.560Z,82.27
2018-12-23T04:38:15.657Z,82.30
2018-12-23T04:40:44.046Z,82.16
2018-12-23T04:43:12.442Z,82.37
2018-12-23T04:45:41.097Z,82.16
2018-12-23T04:48:09.468Z,81.91
2018-12-23T04:50:37.835Z,81.55
2018-12-23T04:53:06.537Z,81.77
2018-12-23T04:55:35.004Z,81.75
2018-12-23T04:58:03.916Z,82.13
2018-12-23T05:00:32.425Z,81.49
2018-12-23T05:03:00.801Z,82.36
2018-12-23T05:05:29.198Z,82.33
2018-12-23T05:07:58.039Z,81.96
2018-12-23T05:10:26.404Z,82.23
2018-12-23T05:12:54.782Z,82.13
2018-12-23T05:15:23.385Z,82.11
2018-12-23T05:17:51.858Z,81.95
2018-12-23T05:20:20.548Z,81.56
2018-12-23T05:22:49.095Z,82.20
2018-12-23T05:25:17.469Z,81.90
2018-12-23T05:27:45.840Z,82.12
2018-12-23T05:30:14.485Z,81.46
2018-12-23T05:32:43.130Z,81.57
2018-12-23T05:35:11.660Z,82.11
2018-12-23T05:37:40.171Z,82.26
2018-12-23T05:40:08.537Z,81.60
2018-12-23T05:42:36.917Z,81.51
2018-12-23T05:45:06.166Z,81.78
2018-12-23T05:47:34.552Z,82.25
2018-12-23T05:50:03.049Z,81.50
2018-12-23T05:52:31.640Z,81.58
2018-12-23T05:55:00.013Z,81.72
2018-12-23T05:57:28.500Z,81.56
2018-12-23T05:59:57.423Z,81.61
2018-12-23T06:02:25.897Z,81.84
2018-12-23T06:04:54.299Z,82.12
2018-12-23T06:07:23.101Z,81.55
2018-12-23T06:09:51.500Z,82.15
2018-12-23T06:12:19.879Z,81.55
2018-12-23T06:14:48.612Z,82.06
2018-12-23T06:17:16.994Z,81.44
2018-12-23T06:19:45.826Z,82.15
2018-12-23T06:22:14.629Z,81.58
2018-12-23T06:24:43.079Z,81.88
2018-12-23T06:27:11.565Z,81.64
2018-12-23T06:29:40.969Z,81.53
2018-12-23T06:32:09.345Z,81.37
2018-12-23T06:34:37.905Z,81.99
2018-12-23T06:37:10.374Z,81.68
2018-12-23T06:39:37.340Z,81.42
2018-12-23T06:42:05.761Z,82.12
2018-12-23T06:44:34.361Z,81.54
2018-12-23T06:47:02.734Z,81.43
2018-12-23T06:49:31.156Z,81.69
2018-12-23T06:51:59.753Z,82.07
2018-12-23T06:54:28.165Z,81.34
2018-12-23T06:57:03.330Z,81.98
2018-12-23T06:59:31.832Z,82.19
2018-12-23T07:02:00.308Z,81.99
2018-12-23T07:04:28.872Z,81.62
2018-12-23T07:06:57.692Z,82.11
2018-12-23T07:09:26.121Z,81.51
2018-12-23T07:11:54.832Z,82.04
2018-12-23T07:14:23.204Z,82.09
2018-12-23T07:16:51.645Z,81.87
2018-12-23T07:19:20.517Z,82.28
2018-12-23T07:25:04.345Z,81.94
2018-12-23T07:27:33.969Z,81.97
2018-12-23T07:30:03.658Z,81.97
2018-12-23T07:32:33.528Z,81.86
2018-12-23T07:35:22.112Z,81.84
2018-12-23T07:37:51.992Z,81.95
2018-12-23T07:40:21.622Z,81.90
2018-12-23T07:42:51.288Z,81.85
2018-12-23T07:45:21.161Z,81.84
2018-12-23T07:48:09.732Z,81.90
2018-12-23T07:50:39.627Z,81.91
2018-12-23T07:53:09.279Z,81.94
2018-12-23T07:55:38.936Z,81.89
2018-12-23T07:58:08.816Z,81.88
2018-12-23T08:00:38.532Z,81.92
2018-12-23T08:03:08.422Z,81.91
2018-12-23T08:05:38.764Z,81.90
2018-12-23T08:08:08.390Z,81.87
2018-12-23T08:10:38.042Z,81.88
2018-12-23T08:13:07.991Z,82.02
2018-12-23T08:15:39.761Z,82.01
2018-12-23T08:18:09.560Z,81.97
2018-12-23T08:23:14.323Z,81.97
2018-12-23T08:25:44.099Z,81.96
2018-12-23T08:28:13.791Z,81.92
2018-12-23T08:30:43.512Z,81.97
2018-12-23T08:33:13.177Z,82.00
2018-12-23T08:35:42.788Z,82.02
2018-12-23T08:38:12.765Z,82.00
2018-12-23T08:40:42.557Z,82.00
2018-12-23T08:43:12.224Z,81.95
2018-12-23T08:45:42.112Z,82.05
2018-12-23T08:48:11.585Z,82.00
2018-12-23T08:50:41.218Z,82.00
2018-12-23T08:53:11.040Z,81.89
2018-12-23T08:55:40.721Z,81.87
2018-12-23T08:58:10.378Z,81.86
2018-12-23T09:00:40.563Z,81.89
2018-12-23T09:03:18.684Z,81.82
2018-12-23T09:05:41.924Z,81.69
2018-12-23T09:08:11.733Z,81.68
2018-12-23T09:10:41.957Z,81.72
2018-12-23T09:13:30.772Z,81.67
2018-12-23T09:16:00.656Z,81.67
2018-12-23T09:18:30.377Z,81.67
2018-12-23T09:21:18.979Z,81.65
2018-12-23T09:23:48.630Z,81.54
2018-12-23T09:26:37.332Z,81.41
2018-12-23T09:29:06.984Z,81.48
2018-12-23T09:31:36.604Z,81.55
2018-12-23T09:34:06.409Z,81.51
2018-12-23T09:36:36.019Z,81.46
2018-12-23T09:39:44.911Z,81.50
2018-12-23T09:42:14.542Z,81.55
2018-12-23T09:44:44.203Z,81.45
2018-12-23T09:47:13.945Z,81.42
2018-12-23T09:49:43.654Z,81.41
2018-12-23T09:52:13.291Z,81.50
2018-12-23T09:54:43.020Z,81.44
2018-12-23T09:57:12.631Z,81.37
2018-12-23T09:59:42.273Z,81.36
2018-12-23T10:02:12.032Z,81.31
2018-12-23T10:04:41.773Z,81.39
2018-12-23T10:07:11.720Z,81.26
2018-12-23T10:09:43.787Z,81.33
2018-12-23T10:12:13.457Z,81.32
2018-12-23T10:14:43.112Z,81.33
2018-12-23T10:17:13.045Z,81.32
2018-12-23T10:19:42.653Z,81.25
2018-12-23T10:22:12.284Z,81.25
2018-12-23T10:24:42.040Z,81.23
2018-12-23T10:27:11.681Z,81.18
2018-12-23T10:29:41.319Z,81.14
2018-12-23T10:32:11.179Z,81.20
2018-12-23T10:34:40.843Z,81.17
2018-12-23T10:37:10.518Z,81.15
2018-12-23T10:39:59.240Z,81.11
2018-12-23T10:42:28.876Z,81.13
2018-12-23T10:44:58.637Z,81.12
2018-12-23T10:47:28.787Z,80.99
2018-12-23T10:49:58.430Z,80.97
2018-12-23T10:52:28.040Z,80.97
2018-12-23T10:54:57.908Z,80.96
2018-12-23T10:57:27.551Z,81.00
2018-12-23T10:59:57.175Z,80.96
2018-12-23T11:02:27.111Z,80.85
2018-12-23T11:04:56.734Z,80.83
2018-12-23T11:07:26.872Z,80.70
2018-12-23T11:10:01.972Z,80.72
2018-12-23T11:12:28.225Z,80.78
2018-12-23T11:14:58.048Z,80.81
2018-12-23T11:17:27.822Z,80.75
2018-12-23T11:19:57.456Z,80.72
2018-12-23T11:22:27.240Z,80.67
2018-12-23T11:25:15.946Z,80.75
2018-12-23T11:27:45.700Z,80.68
2018-12-23T11:30:15.355Z,80.58
2018-12-23T11:33:04.298Z,80.58
2018-12-23T11:35:33.928Z,80.56
2018-12-23T11:40:53.959Z,80.48
2018-12-23T11:43:23.639Z,80.41
2018-12-23T11:46:12.327Z,80.41
2018-12-23T11:48:41.957Z,80.40
2018-12-23T11:51:30.749Z,80.23
2018-12-23T11:54:00.391Z,80.23
2018-12-23T11:56:30.021Z,80.40
2018-12-23T11:58:59.781Z,80.37
2018-12-23T12:01:29.422Z,80.35
2018-12-23T12:03:59.052Z,80.43
2018-12-23T12:06:28.995Z,80.37
2018-12-23T12:09:10.225Z,80.23
2018-12-23T12:11:40.372Z,80.34
2018-12-23T12:14:10.008Z,80.42
2018-12-23T12:16:39.657Z,80.37
2018-12-23T12:19:48.711Z,80.29
2018-12-23T12:22:20.881Z,80.26
2018-12-23T12:24:50.990Z,80.20
2018-12-23T12:27:20.699Z,80.21
2018-12-23T12:29:50.343Z,80.24
2018-12-23T12:32:20.163Z,80.22
2018-12-23T12:34:49.841Z,80.23
2018-12-23T12:37:19.474Z,80.21
2018-12-23T12:39:49.597Z,80.20
2018-12-23T12:42:20.197Z,80.16
2018-12-23T12:45:08.976Z,80.14
2018-12-23T12:50:13.625Z,80.18
2018-12-23T12:52:43.269Z,80.10
2018-12-23T12:55:12.931Z,80.29
2018-12-23T12:57:42.675Z,80.08
2018-12-23T13:00:12.375Z,80.25
2018-12-23T13:02:41.999Z,80.27
2018-12-23T13:05:11.751Z,80.25
2018-12-23T13:08:00.241Z,80.27
2018-12-23T13:10:41.521Z,80.18
2018-12-23T13:13:11.232Z,80.13
2018-12-23T13:15:40.881Z,80.16
2018-12-23T13:18:10.606Z,80.16
2018-12-23T13:20:40.318Z,80.15
2018-12-23T13:23:09.979Z,80.12
2018-12-23T13:25:39.869Z,80.17
2018-12-23T13:28:09.556Z,80.23
2018-12-23T13:30:39.193Z,80.24
2018-12-23T13:33:28.149Z,80.23
2018-12-23T13:36:16.840Z,80.19
2018-12-23T13:38:46.846Z,80.16
2018-12-23T13:41:41.843Z,80.15
2018-12-23T13:44:45.297Z,80.19
2018-12-23T13:47:52.753Z,80.12
2018-12-23T13:51:00.342Z,80.04
2018-12-23T13:54:07.803Z,80.11
2018-12-23T13:57:15.501Z,80.08
2018-12-23T14:00:23.251Z,80.11
2018-12-23T14:03:30.948Z,80.19
2018-12-23T14:06:25.435Z,80.12
2018-12-23T14:09:33.365Z,80.20
2018-12-23T14:12:03.133Z,80.22
2018-12-23T14:14:32.788Z,80.17
2018-12-23T14:17:02.631Z,80.19
2018-12-23T14:19:32.267Z,80.19
2018-12-23T14:22:01.906Z,80.20
2018-12-23T14:24:31.782Z,80.32
2018-12-23T14:27:01.423Z,80.29
2018-12-23T14:29:31.090Z,80.38
2018-12-23T14:32:00.992Z,80.42
2018-12-23T14:34:49.583Z,80.36
2018-12-23T14:39:54.279Z,80.26
2018-12-23T14:42:23.983Z,80.31
2018-12-23T14:44:53.650Z,80.33
2018-12-23T14:47:23.513Z,80.35
2018-12-23T14:50:12.003Z,80.39
2018-12-23T14:52:41.882Z,80.39
2018-12-23T14:55:12.764Z,80.40
2018-12-23T14:57:42.841Z,80.33
2018-12-23T15:00:48.462Z,80.38
2018-12-23T15:06:14.762Z,80.44
2018-12-23T15:11:53.610Z,80.40
2018-12-23T15:14:23.325Z,80.41
2018-12-23T15:16:53.137Z,80.39
2018-12-23T15:19:22.898Z,80.42
2018-12-23T15:22:11.334Z,80.43
2018-12-23T15:24:41.274Z,80.52
2018-12-23T15:27:10.967Z,80.51
2018-12-23T15:29:40.593Z,80.49
2018-12-23T15:32:10.384Z,80.53
2018-12-23T15:34:40.051Z,80.54
2018-12-23T15:37:28.760Z,80.58
2018-12-23T15:39:58.397Z,80.62
2018-12-23T15:42:28.162Z,80.61
2018-12-23T15:44:58.002Z,80.50
2018-12-23T15:47:46.435Z,80.43
2018-12-23T15:50:16.351Z,80.43
2018-12-23T15:52:46.016Z,80.49
2018-12-23T15:55:15.636Z,80.48
2018-12-23T15:57:45.519Z,80.54
2018-12-23T16:00:15.156Z,80.65
2018-12-23T16:02:44.788Z,80.72
2018-12-23T16:05:14.715Z,80.80
2018-12-23T16:07:44.394Z,80.82
2018-12-23T16:10:14.003Z,80.86
2018-12-23T16:12:44.088Z,80.95
2018-12-23T16:15:13.876Z,81.00
2018-12-23T16:17:43.486Z,81.00
2018-12-23T16:20:14.754Z,80.96
2018-12-23T16:22:44.380Z,80.97
2018-12-23T16:25:14.011Z,80.92
2018-12-23T16:27:44.220Z,80.91
2018-12-23T16:30:13.856Z,80.96
2018-12-23T16:32:43.512Z,80.96
2018-12-23T16:35:13.396Z,80.98
2018-12-23T16:37:43.063Z,81.01
2018-12-23T16:40:14.149Z,80.99
2018-12-23T16:42:44.054Z,80.99
2018-12-23T16:45:32.689Z,81.03
2018-12-23T16:48:02.400Z,81.03
2018-12-23T16:50:32.030Z,81.10
2018-12-23T16:53:01.851Z,81.08
2018-12-23T16:55:31.525Z,81.09
2018-12-23T16:58:01.477Z,81.08
2018-12-23T17:00:32.792Z,81.09
2018-12-23T17:03:02.472Z,81.07
2018-12-23T17:05:32.149Z,81.08
2018-12-23T17:08:02.279Z,81.13
2018-12-23T17:15:44.263Z,81.17
2018-12-23T17:18:13.882Z,81.25
2018-12-23T17:20:43.545Z,81.22
2018-12-23T17:23:13.386Z,81.26
2018-12-23T17:25:43.040Z,81.24
2018-12-23T17:28:12.750Z,81.26
2018-12-23T17:30:42.627Z,81.21
2018-12-23T17:33:12.275Z,81.26
2018-12-23T17:36:01.514Z,81.28
2018-12-23T17:38:50.096Z,81.29
2018-12-23T17:41:20.699Z,81.28
2018-12-23T17:43:50.352Z,81.28
2018-12-23T17:46:20.006Z,81.34
2018-12-23T17:48:49.914Z,81.36
2018-12-23T17:51:19.542Z,81.30
2018-12-23T17:53:49.170Z,81.33
2018-12-23T17:56:19.048Z,81.35
2018-12-23T17:58:49.024Z,81.35
2018-12-23T18:01:18.649Z,81.35
2018-12-23T18:03:48.412Z,81.35
2018-12-23T18:06:18.097Z,81.33
2018-12-23T18:08:47.721Z,81.24
2018-12-23T18:11:17.661Z,81.37
2018-12-23T18:13:47.242Z,81.36
2018-12-23T18:16:16.996Z,81.36
2018-12-23T18:18:46.839Z,81.36
2018-12-23T18:21:17.332Z,81.34
2018-12-23T18:23:47.080Z,81.37
2018-12-23T18:26:17.222Z,81.37
2018-12-23T18:28:46.955Z,81.33
2018-12-23T18:31:16.602Z,81.39
2018-12-23T18:33:46.381Z,81.33
2018-12-23T18:36:16.033Z,81.34
2018-12-23T18:44:12.296Z,81.35
2018-12-23T18:46:41.962Z,81.36
2018-12-23T18:49:11.588Z,81.33
2018-12-23T18:51:41.358Z,81.41
2018-12-23T18:54:11.051Z,81.41
2018-12-23T18:56:43.720Z,81.46
2018-12-23T18:59:14.882Z,81.45
2018-12-23T19:01:54.179Z,81.49
2018-12-23T19:04:42.622Z,81.50
2018-12-23T19:07:12.557Z,81.45
2018-12-23T19:13:13.006Z,81.39
2018-12-23T19:16:20.485Z,81.40
2018-12-23T19:19:28.558Z,81.40
2018-12-23T19:22:36.031Z,81.44
2018-12-23T19:25:33.363Z,81.41
2018-12-23T19:28:25.353Z,81.41
2018-12-23T19:31:32.923Z,81.40
2018-12-23T19:34:40.380Z,81.48
2018-12-23T19:37:47.961Z,81.48
2018-12-23T19:40:55.433Z,81.47
2018-12-23T19:44:03.013Z,81.45
2018-12-23T19:47:10.470Z,81.46
2018-12-23T19:50:18.101Z,81.49
2018-12-23T19:53:25.572Z,81.50
2018-12-23T19:56:33.141Z,81.47
2018-12-23T19:59:40.598Z,81.46
2018-12-23T20:06:01.710Z,81.51
2018-12-23T20:09:09.250Z,81.53
2018-12-23T20:12:04.762Z,81.51
2018-12-23T20:15:12.275Z,81.51
2018-12-23T20:18:19.861Z,81.56
2018-12-23T20:21:00.906Z,81.57
2018-12-23T20:24:08.502Z,81.55
2018-12-23T20:27:16.031Z,81.54
2018-12-23T20:30:23.648Z,81.55
2018-12-23T20:33:31.203Z,81.56
2018-12-23T20:36:38.749Z,81.63
2018-12-23T20:39:46.260Z,81.64
2018-12-23T20:42:53.843Z,81.64
2018-12-23T20:46:01.336Z,81.67
2018-12-23T20:49:09.964Z,81.61
2018-12-23T20:52:17.528Z,81.66
2018-12-23T20:55:25.091Z,81.66
2018-12-23T21:01:31.379Z,81.67
2018-12-23T21:04:38.944Z,81.66
2018-12-23T21:07:46.694Z,81.63
2018-12-23T21:10:54.220Z,81.65
2018-12-23T21:14:01.917Z,81.63
2018-12-23T21:17:09.480Z,81.65
2018-12-23T21:20:17.368Z,81.64
2018-12-23T21:22:58.199Z,81.56
2018-12-23T21:25:39.643Z,81.61
2018-12-23T21:28:47.164Z,81.62
2018-12-23T21:31:51.174Z,81.64
2018-12-23T21:34:59.821Z,81.62
2018-12-23T21:38:12.174Z,81.60
2018-12-23T21:41:24.153Z,81.62
2018-12-23T21:44:26.431Z,81.61
2018-12-23T21:47:33.953Z,81.55
2018-12-23T21:50:41.594Z,81.56
2018-12-23T21:53:49.114Z,81.58
2018-12-23T21:56:56.812Z,81.57
2018-12-23T21:59:49.213Z,81.56
2018-12-23T22:02:57.341Z,81.60
2018-12-23T22:06:05.695Z,81.55
2018-12-23T22:09:13.251Z,81.55
2018-12-23T22:12:20.752Z,81.57
2018-12-23T22:14:50.863Z,81.52
2018-12-23T22:17:20.501Z,81.56
2018-12-23T22:19:50.185Z,81.58
2018-12-23T22:22:20.002Z,81.58
2018-12-23T22:24:49.774Z,81.59
2018-12-23T22:27:19.524Z,81.60
2018-12-23T22:29:49.527Z,81.64
2018-12-23T22:32:19.200Z,81.64
2018-12-23T22:34:48.885Z,81.69
2018-12-23T22:37:18.758Z,81.66
2018-12-23T22:39:48.417Z,81.63
2018-12-23T22:42:18.120Z,81.62
2018-12-23T22:44:48.066Z,81.66
2018-12-23T22:47:56.987Z,81.65
2018-12-23T22:50:27.035Z,81.66
2018-12-23T22:52:56.678Z,81.61
2018-12-23T22:55:26.366Z,81.61
2018-12-23T22:57:57.960Z,81.63
2018-12-23T23:00:46.449Z,81.65
2018-12-23T23:03:16.400Z,81.68
2018-12-23T23:05:46.047Z,81.61
2018-12-23T23:08:15.747Z,81.62
2018-12-23T23:10:46.439Z,81.60
2018-12-23T23:13:18.783Z,81.62
2018-12-23T23:15:47.959Z,81.63
2018-12-23T23:18:56.878Z,81.62
2018-12-23T23:21:45.906Z,81.58
2018-12-23T23:27:21.597Z,81.55
2018-12-23T23:29:51.235Z,81.50
2018-12-23T23:32:20.875Z,81.53
2018-12-23T23:37:41.688Z,81.51
2018-12-23T23:40:11.332Z,81.55
2018-12-23T23:42:41.009Z,81.57
2018-12-23T23:45:10.915Z,81.58
2018-12-23T23:47:40.667Z,81.48
2018-12-23T23:50:10.361Z,81.45
2018-12-23T23:52:59.148Z,81.45
2018-12-23T23:55:28.783Z,81.50
2018-12-23T23:57:58.461Z,81.49
